sensor_id;sensor_type;location;lat;lon;timestamp;pressure;altitude;pressure_sealevel;temperature;humidity
55317;BME280;41178;48.956;8.130;2023-02-19T00:04:34;100277.53;;;9.07;58.31
55317;BME280;41178;48.956;8.130;2023-02-19T00:09:35;100250.53;;;9.27;57.16
55317;BME280;41178;48.956;8.130;2023-02-19T00:14:37;100251.06;;;9.47;56.90
55317;BME280;41178;48.956;8.130;2023-02-19T00:19:39;100267.53;;;9.17;57.84
55317;BME280;41178;48.956;8.130;2023-02-19T00:24:41;100238.03;;;9.44;56.74
55317;BME280;41178;48.956;8.130;2023-02-19T00:29:42;100246.69;;;9.29;56.99
55317;BME280;41178;48.956;8.130;2023-02-19T00:34:44;100222.69;;;9.95;55.31
55317;BME280;41178;48.956;8.130;2023-02-19T00:39:55;100240.25;;;9.89;56.57
55317;BME280;41178;48.956;8.130;2023-02-19T00:44:56;100213.50;;;9.89;55.86
55317;BME280;41178;48.956;8.130;2023-02-19T00:49:58;100217.91;;;8.90;56.60
55317;BME280;41178;48.956;8.130;2023-02-19T00:55:00;100256.75;;;9.68;55.85
55317;BME280;41178;48.956;8.130;2023-02-19T01:00:02;100233.78;;;9.00;56.60
55317;BME280;41178;48.956;8.130;2023-02-19T01:05:05;100274.31;;;8.95;58.02
55317;BME280;41178;48.956;8.130;2023-02-19T01:10:06;100218.16;;;9.63;56.04
55317;BME280;41178;48.956;8.130;2023-02-19T01:15:11;100255.91;;;9.51;56.48
55317;BME280;41178;48.956;8.130;2023-02-19T01:20:13;100249.72;;;9.34;56.64
55317;BME280;41178;48.956;8.130;2023-02-19T01:25:15;100224.34;;;9.55;55.78
55317;BME280;41178;48.956;8.130;2023-02-19T01:30:16;100249.50;;;10.43;55.02
55317;BME280;41178;48.956;8.130;2023-02-19T01:35:18;100275.53;;;8.75;57.18
55317;BME280;41178;48.956;8.130;2023-02-19T01:40:20;100269.41;;;9.25;56.79
55317;BME280;41178;48.956;8.130;2023-02-19T01:45:29;100266.06;;;8.80;57.43
55317;BME280;41178;48.956;8.130;2023-02-19T01:50:35;100253.06;;;9.61;56.57
55317;BME280;41178;48.956;8.130;2023-02-19T01:55:39;100252.13;;;8.95;57.56
55317;BME280;41178;48.956;8.130;2023-02-19T02:00:46;100249.53;;;9.36;57.04
55317;BME280;41178;48.956;8.130;2023-02-19T02:05:55;100227.81;;;8.63;58.23
55317;BME280;41178;48.956;8.130;2023-02-19T02:10:59;100232.28;;;8.97;57.55
55317;BME280;41178;48.956;8.130;2023-02-19T02:32:39;100238.47;;;9.14;57.97
55317;BME280;41178;48.956;8.130;2023-02-19T02:37:44;100221.84;;;10.03;56.41
55317;BME280;41178;48.956;8.130;2023-02-19T02:42:47;100238.41;;;8.47;58.98
55317;BME280;41178;48.956;8.130;2023-02-19T02:47:53;100226.00;;;9.31;57.84
55317;BME280;41178;48.956;8.130;2023-02-19T02:53:02;100244.88;;;8.79;59.32
55317;BME280;41178;48.956;8.130;2023-02-19T02:58:24;100213.66;;;8.71;58.75
55317;BME280;41178;48.956;8.130;2023-02-19T03:03:29;100208.13;;;8.64;58.84
55317;BME280;41178;48.956;8.130;2023-02-19T03:13:46;100190.94;;;8.59;58.24
55317;BME280;41178;48.956;8.130;2023-02-19T03:19:13;100200.63;;;9.19;58.25
55317;BME280;41178;48.956;8.130;2023-02-19T03:24:27;100210.63;;;9.17;58.55
55317;BME280;41178;48.956;8.130;2023-02-19T03:29:51;100226.00;;;8.72;59.23
55317;BME280;41178;48.956;8.130;2023-02-19T03:35:01;100236.06;;;8.44;59.74
55317;BME280;41178;48.956;8.130;2023-02-19T03:40:07;100205.25;;;8.15;59.69
55317;BME280;41178;48.956;8.130;2023-02-19T03:50:45;100241.06;;;8.81;58.36
55317;BME280;41178;48.956;8.130;2023-02-19T03:56:38;100244.34;;;9.10;57.61
55317;BME280;41178;48.956;8.130;2023-02-19T04:02:08;100216.72;;;8.84;57.52
55317;BME280;41178;48.956;8.130;2023-02-19T04:07:12;100242.38;;;9.53;57.02
55317;BME280;41178;48.956;8.130;2023-02-19T04:12:14;100268.28;;;9.61;56.96
55317;BME280;41178;48.956;8.130;2023-02-19T04:17:42;100279.84;;;9.94;56.53
55317;BME280;41178;48.956;8.130;2023-02-19T04:22:55;100249.41;;;9.54;56.13
55317;BME280;41178;48.956;8.130;2023-02-19T04:27:58;100253.34;;;9.09;57.35
55317;BME280;41178;48.956;8.130;2023-02-19T04:33:03;100328.38;;;10.63;55.21
55317;BME280;41178;48.956;8.130;2023-02-19T04:38:05;100296.31;;;10.30;55.85
55317;BME280;41178;48.956;8.130;2023-02-19T04:43:07;100283.97;;;9.80;56.26
55317;BME280;41178;48.956;8.130;2023-02-19T04:48:09;100323.00;;;10.63;54.50
55317;BME280;41178;48.956;8.130;2023-02-19T04:53:10;100299.16;;;10.29;55.23
55317;BME280;41178;48.956;8.130;2023-02-19T04:58:12;100329.94;;;9.84;56.41
55317;BME280;41178;48.956;8.130;2023-02-19T05:03:17;100325.72;;;9.65;56.48
55317;BME280;41178;48.956;8.130;2023-02-19T05:08:19;100339.28;;;10.37;55.93
55317;BME280;41178;48.956;8.130;2023-02-19T05:13:20;100352.94;;;9.60;57.15
55317;BME280;41178;48.956;8.130;2023-02-19T05:18:22;100343.31;;;10.08;55.93
55317;BME280;41178;48.956;8.130;2023-02-19T05:23:25;100343.00;;;9.28;57.59
55317;BME280;41178;48.956;8.130;2023-02-19T05:28:27;100334.44;;;9.83;57.13
55317;BME280;41178;48.956;8.130;2023-02-19T05:33:29;100315.38;;;10.36;55.56
55317;BME280;41178;48.956;8.130;2023-02-19T05:38:31;100327.09;;;10.35;55.35
55317;BME280;41178;48.956;8.130;2023-02-19T05:43:33;100346.78;;;10.66;54.87
55317;BME280;41178;48.956;8.130;2023-02-19T05:48:35;100341.75;;;10.63;54.53
55317;BME280;41178;48.956;8.130;2023-02-19T05:53:38;100345.16;;;10.16;55.29
55317;BME280;41178;48.956;8.130;2023-02-19T05:58:39;100350.47;;;10.32;54.73
55317;BME280;41178;48.956;8.130;2023-02-19T06:03:41;100329.63;;;9.19;56.66
55317;BME280;41178;48.956;8.130;2023-02-19T06:08:43;100371.81;;;9.75;56.15
55317;BME280;41178;48.956;8.130;2023-02-19T06:13:45;100354.25;;;10.71;54.27
55317;BME280;41178;48.956;8.130;2023-02-19T06:18:47;100358.97;;;10.52;54.74
55317;BME280;41178;48.956;8.130;2023-02-19T06:23:49;100359.03;;;10.03;55.72
55317;BME280;41178;48.956;8.130;2023-02-19T06:28:52;100362.97;;;10.73;54.40
55317;BME280;41178;48.956;8.130;2023-02-19T06:33:53;100345.94;;;9.59;55.47
55317;BME280;41178;48.956;8.130;2023-02-19T06:38:59;100343.44;;;9.07;56.05
55317;BME280;41178;48.956;8.130;2023-02-19T06:44:01;100366.88;;;10.05;54.77
55317;BME280;41178;48.956;8.130;2023-02-19T06:49:04;100375.44;;;9.41;55.73
55317;BME280;41178;48.956;8.130;2023-02-19T06:54:06;100414.13;;;10.95;53.43
55317;BME280;41178;48.956;8.130;2023-02-19T06:59:15;100367.50;;;9.15;55.11
55317;BME280;41178;48.956;8.130;2023-02-19T07:04:22;100409.31;;;10.65;53.28
55317;BME280;41178;48.956;8.130;2023-02-19T07:09:24;100423.41;;;10.26;54.01
55317;BME280;41178;48.956;8.130;2023-02-19T07:14:25;100425.97;;;9.69;54.43
55317;BME280;41178;48.956;8.130;2023-02-19T07:19:29;100456.03;;;9.71;55.00
55317;BME280;41178;48.956;8.130;2023-02-19T07:24:31;100452.91;;;9.84;55.22
55317;BME280;41178;48.956;8.130;2023-02-19T07:29:33;100463.34;;;10.20;55.58
55317;BME280;41178;48.956;8.130;2023-02-19T07:34:35;100456.16;;;10.86;53.98
55317;BME280;41178;48.956;8.130;2023-02-19T07:39:37;100461.13;;;9.99;55.70
55317;BME280;41178;48.956;8.130;2023-02-19T07:44:38;100429.75;;;9.58;56.10
55317;BME280;41178;48.956;8.130;2023-02-19T07:49:40;100468.19;;;10.74;54.41
55317;BME280;41178;48.956;8.130;2023-02-19T07:54:42;100471.63;;;9.49;56.29
55317;BME280;41178;48.956;8.130;2023-02-19T07:59:44;100482.16;;;9.93;55.83
55317;BME280;41178;48.956;8.130;2023-02-19T08:04:46;100500.81;;;10.28;54.52
55317;BME280;41178;48.956;8.130;2023-02-19T08:09:48;100500.16;;;10.67;54.16
55317;BME280;41178;48.956;8.130;2023-02-19T08:15:09;100463.47;;;10.02;53.92
55317;BME280;41178;48.956;8.130;2023-02-19T08:20:11;100489.94;;;10.38;54.34
55317;BME280;41178;48.956;8.130;2023-02-19T08:25:13;100484.09;;;10.67;52.93
55317;BME280;41178;48.956;8.130;2023-02-19T08:30:14;100500.50;;;10.97;53.66
55317;BME280;41178;48.956;8.130;2023-02-19T08:35:16;100493.09;;;10.49;53.98
55317;BME280;41178;48.956;8.130;2023-02-19T08:40:18;100517.19;;;11.23;52.68
55317;BME280;41178;48.956;8.130;2023-02-19T08:45:20;100509.88;;;10.76;53.21
55317;BME280;41178;48.956;8.130;2023-02-19T08:50:25;100506.66;;;10.56;53.71
55317;BME280;41178;48.956;8.130;2023-02-19T08:55:27;100483.03;;;9.94;53.90
55317;BME280;41178;48.956;8.130;2023-02-19T09:00:29;100484.75;;;10.28;53.63
55317;BME280;41178;48.956;8.130;2023-02-19T09:05:31;100497.66;;;10.90;52.94
55317;BME280;41178;48.956;8.130;2023-02-19T09:10:35;100488.94;;;10.55;53.55
55317;BME280;41178;48.956;8.130;2023-02-19T09:15:37;100521.88;;;11.21;52.27
55317;BME280;41178;48.956;8.130;2023-02-19T09:20:39;100509.50;;;10.30;53.77
55317;BME280;41178;48.956;8.130;2023-02-19T09:25:41;100526.75;;;11.01;52.48
55317;BME280;41178;48.956;8.130;2023-02-19T09:30:43;100530.09;;;11.03;52.32
55317;BME280;41178;48.956;8.130;2023-02-19T09:35:44;100534.63;;;10.86;52.23
55317;BME280;41178;48.956;8.130;2023-02-19T09:40:46;100548.84;;;10.70;52.34
55317;BME280;41178;48.956;8.130;2023-02-19T09:46:01;100593.03;;;12.05;50.10
55317;BME280;41178;48.956;8.130;2023-02-19T09:51:04;100536.66;;;10.93;52.46
55317;BME280;41178;48.956;8.130;2023-02-19T09:56:07;100559.47;;;11.69;50.99
55317;BME280;41178;48.956;8.130;2023-02-19T10:01:10;100549.28;;;11.65;50.71
55317;BME280;41178;48.956;8.130;2023-02-19T10:06:15;100567.00;;;11.66;50.62
55317;BME280;41178;48.956;8.130;2023-02-19T10:11:22;100553.44;;;10.19;52.85
55317;BME280;41178;48.956;8.130;2023-02-19T10:16:27;100538.63;;;10.58;52.40
55317;BME280;41178;48.956;8.130;2023-02-19T10:21:32;100555.84;;;11.37;50.28
55317;BME280;41178;48.956;8.130;2023-02-19T10:26:33;100547.00;;;10.71;51.81
55317;BME280;41178;48.956;8.130;2023-02-19T10:31:36;100586.31;;;10.62;52.24
55317;BME280;41178;48.956;8.130;2023-02-19T10:36:40;100584.84;;;10.84;52.02
55317;BME280;41178;48.956;8.130;2023-02-19T10:41:43;100590.22;;;11.25;51.47
55317;BME280;41178;48.956;8.130;2023-02-19T10:46:50;100575.09;;;12.05;50.07
55317;BME280;41178;48.956;8.130;2023-02-19T10:51:54;100570.06;;;11.62;50.31
55317;BME280;41178;48.956;8.130;2023-02-19T11:06:28;100639.28;;;9.29;56.94
55317;BME280;41178;48.956;8.130;2023-02-19T11:11:36;100624.03;;;8.85;57.46
55317;BME280;41178;48.956;8.130;2023-02-19T11:16:59;100597.41;;;8.22;57.32
55317;BME280;41178;48.956;8.130;2023-02-19T11:27:33;100562.97;;;9.00;55.88
55317;BME280;41178;48.956;8.130;2023-02-19T11:32:35;100556.59;;;9.46;55.34
55317;BME280;41178;48.956;8.130;2023-02-19T11:37:55;100547.16;;;9.07;55.36
55317;BME280;41178;48.956;8.130;2023-02-19T11:48:50;100586.25;;;9.08;55.31
55317;BME280;41178;48.956;8.130;2023-02-19T11:59:40;100642.66;;;9.31;55.59
55317;BME280;41178;48.956;8.130;2023-02-19T12:05:07;100563.72;;;9.89;53.82
55317;BME280;41178;48.956;8.130;2023-02-19T12:16:08;100611.72;;;9.02;54.89
55317;BME280;41178;48.956;8.130;2023-02-19T12:21:45;100618.13;;;9.10;54.95
55317;BME280;41178;48.956;8.130;2023-02-19T12:32:24;100568.13;;;8.84;53.91
55317;BME280;41178;48.956;8.130;2023-02-19T12:47:38;100599.06;;;10.93;51.86
55317;BME280;41178;48.956;8.130;2023-02-19T12:52:43;100567.00;;;10.18;51.99
55317;BME280;41178;48.956;8.130;2023-02-19T12:57:49;100562.66;;;9.82;52.97
55317;BME280;41178;48.956;8.130;2023-02-19T13:03:11;100566.75;;;9.68;53.19
55317;BME280;41178;48.956;8.130;2023-02-19T13:08:25;100546.09;;;10.38;51.94
55317;BME280;41178;48.956;8.130;2023-02-19T13:13:40;100548.97;;;10.36;52.09
55317;BME280;41178;48.956;8.130;2023-02-19T13:18:54;100579.25;;;10.45;52.80
55317;BME280;41178;48.956;8.130;2023-02-19T13:23:57;100586.06;;;9.88;53.31
55317;BME280;41178;48.956;8.130;2023-02-19T13:34:42;100568.59;;;9.68;52.91
55317;BME280;41178;48.956;8.130;2023-02-19T13:39:53;100560.50;;;10.37;52.23
55317;BME280;41178;48.956;8.130;2023-02-19T13:44:56;100582.84;;;10.11;52.72
55317;BME280;41178;48.956;8.130;2023-02-19T13:50:05;100556.16;;;9.50;53.39
55317;BME280;41178;48.956;8.130;2023-02-19T13:55:44;100575.88;;;9.57;53.45
55317;BME280;41178;48.956;8.130;2023-02-19T14:00:51;100582.34;;;9.81;53.77
55317;BME280;41178;48.956;8.130;2023-02-19T14:06:02;100552.69;;;9.32;53.56
55317;BME280;41178;48.956;8.130;2023-02-19T14:11:06;100585.72;;;9.05;54.98
55317;BME280;41178;48.956;8.130;2023-02-19T14:21:37;100584.34;;;9.79;53.60
55317;BME280;41178;48.956;8.130;2023-02-19T14:26:40;100561.78;;;9.82;53.65
55317;BME280;41178;48.956;8.130;2023-02-19T14:31:44;100574.25;;;10.58;52.75
55317;BME280;41178;48.956;8.130;2023-02-19T14:36:52;100555.22;;;11.11;51.24
55317;BME280;41178;48.956;8.130;2023-02-19T14:42:00;100585.47;;;10.70;52.65
55317;BME280;41178;48.956;8.130;2023-02-19T14:47:06;100560.19;;;11.38;50.71
55317;BME280;41178;48.956;8.130;2023-02-19T14:52:17;100582.34;;;11.07;51.76
55317;BME280;41178;48.956;8.130;2023-02-19T14:57:24;100585.00;;;11.16;51.63
55317;BME280;41178;48.956;8.130;2023-02-19T15:02:29;100577.75;;;9.91;53.61
55317;BME280;41178;48.956;8.130;2023-02-19T15:07:32;100588.00;;;11.37;51.56
55317;BME280;41178;48.956;8.130;2023-02-19T15:17:41;100621.66;;;10.82;52.61
55317;BME280;41178;48.956;8.130;2023-02-19T15:22:43;100614.38;;;10.42;53.41
55317;BME280;41178;48.956;8.130;2023-02-19T15:27:46;100615.63;;;11.54;51.59
55317;BME280;41178;48.956;8.130;2023-02-19T15:32:57;100619.16;;;11.22;52.08
55317;BME280;41178;48.956;8.130;2023-02-19T15:37:59;100577.78;;;11.41;51.57
55317;BME280;41178;48.956;8.130;2023-02-19T15:43:01;100593.66;;;10.60;52.18
55317;BME280;41178;48.956;8.130;2023-02-19T15:48:08;100622.47;;;11.49;51.18
55317;BME280;41178;48.956;8.130;2023-02-19T15:53:15;100600.19;;;10.66;51.70
55317;BME280;41178;48.956;8.130;2023-02-19T15:58:30;100610.72;;;10.67;52.30
55317;BME280;41178;48.956;8.130;2023-02-19T16:03:34;100593.03;;;10.91;51.94
55317;BME280;41178;48.956;8.130;2023-02-19T16:08:38;100642.53;;;10.70;52.49
55317;BME280;41178;48.956;8.130;2023-02-19T16:13:40;100605.28;;;11.02;51.11
55317;BME280;41178;48.956;8.130;2023-02-19T16:18:46;100647.78;;;11.38;52.05
55317;BME280;41178;48.956;8.130;2023-02-19T16:23:52;100630.47;;;10.58;52.68
55317;BME280;41178;48.956;8.130;2023-02-19T16:28:59;100616.09;;;10.67;51.99
55317;BME280;41178;48.956;8.130;2023-02-19T16:34:15;100643.06;;;10.23;53.01
55317;BME280;41178;48.956;8.130;2023-02-19T16:39:19;100611.75;;;9.81;53.28
55317;BME280;41178;48.956;8.130;2023-02-19T16:49:26;100574.78;;;10.86;50.27
55317;BME280;41178;48.956;8.130;2023-02-19T16:54:27;100613.25;;;10.69;51.30
55317;BME280;41178;48.956;8.130;2023-02-19T16:59:29;100622.72;;;10.47;51.46
55317;BME280;41178;48.956;8.130;2023-02-19T17:04:31;100624.63;;;10.71;51.33
55317;BME280;41178;48.956;8.130;2023-02-19T17:09:33;100642.50;;;10.62;51.33
55317;BME280;41178;48.956;8.130;2023-02-19T17:14:34;100641.44;;;9.96;52.32
55317;BME280;41178;48.956;8.130;2023-02-19T17:19:36;100633.03;;;10.93;50.60
55317;BME280;41178;48.956;8.130;2023-02-19T17:24:39;100689.03;;;10.69;51.35
55317;BME280;41178;48.956;8.130;2023-02-19T17:29:41;100681.78;;;10.54;51.70
55317;BME280;41178;48.956;8.130;2023-02-19T17:34:43;100695.97;;;10.46;51.66
55317;BME280;41178;48.956;8.130;2023-02-19T17:39:45;100647.31;;;10.50;50.37
55317;BME280;41178;48.956;8.130;2023-02-19T17:44:46;100682.94;;;11.26;49.87
55317;BME280;41178;48.956;8.130;2023-02-19T17:49:48;100689.84;;;11.37;50.02
55317;BME280;41178;48.956;8.130;2023-02-19T17:54:50;100665.69;;;11.45;49.42
55317;BME280;41178;48.956;8.130;2023-02-19T17:59:51;100680.41;;;10.92;49.96
55317;BME280;41178;48.956;8.130;2023-02-19T18:04:53;100662.66;;;10.83;49.60
55317;BME280;41178;48.956;8.130;2023-02-19T18:09:55;100715.13;;;10.25;50.88
55317;BME280;41178;48.956;8.130;2023-02-19T18:14:56;100736.00;;;11.06;50.25
55317;BME280;41178;48.956;8.130;2023-02-19T18:19:58;100721.88;;;10.37;50.37
55317;BME280;41178;48.956;8.130;2023-02-19T18:25:00;100705.50;;;10.83;49.25
55317;BME280;41178;48.956;8.130;2023-02-19T18:30:02;100746.28;;;10.42;50.60
55317;BME280;41178;48.956;8.130;2023-02-19T18:35:05;100727.72;;;9.62;51.89
55317;BME280;41178;48.956;8.130;2023-02-19T18:40:07;100691.31;;;11.15;49.46
55317;BME280;41178;48.956;8.130;2023-02-19T18:45:09;100740.59;;;11.63;48.64
55317;BME280;41178;48.956;8.130;2023-02-19T18:50:12;100736.41;;;10.08;50.38
55317;BME280;41178;48.956;8.130;2023-02-19T18:55:14;100779.06;;;10.70;50.21
55317;BME280;41178;48.956;8.130;2023-02-19T19:00:23;100732.81;;;9.73;50.98
55317;BME280;41178;48.956;8.130;2023-02-19T19:05:27;100753.53;;;11.68;48.54
55317;BME280;41178;48.956;8.130;2023-02-19T19:10:29;100731.88;;;11.45;48.73
55317;BME280;41178;48.956;8.130;2023-02-19T19:15:31;100767.19;;;11.16;49.16
55317;BME280;41178;48.956;8.130;2023-02-19T19:20:33;100773.66;;;10.97;49.37
55317;BME280;41178;48.956;8.130;2023-02-19T19:25:35;100755.81;;;11.38;48.81
55317;BME280;41178;48.956;8.130;2023-02-19T19:30:37;100752.63;;;11.43;48.29
55317;BME280;41178;48.956;8.130;2023-02-19T19:35:39;100785.69;;;10.93;49.67
55317;BME280;41178;48.956;8.130;2023-02-19T19:40:41;100782.97;;;11.52;49.43
55317;BME280;41178;48.956;8.130;2023-02-19T19:45:43;100784.72;;;10.33;51.22
55317;BME280;41178;48.956;8.130;2023-02-19T19:50:44;100805.06;;;10.52;51.46
55317;BME280;41178;48.956;8.130;2023-02-19T19:55:46;100764.34;;;11.34;49.74
55317;BME280;41178;48.956;8.130;2023-02-19T20:00:48;100777.72;;;11.09;50.41
55317;BME280;41178;48.956;8.130;2023-02-19T20:05:49;100759.66;;;11.60;49.29
55317;BME280;41178;48.956;8.130;2023-02-19T20:10:51;100729.13;;;10.96;49.92
55317;BME280;41178;48.956;8.130;2023-02-19T20:15:53;100763.81;;;10.71;50.08
55317;BME280;41178;48.956;8.130;2023-02-19T20:20:55;100775.31;;;11.81;49.51
55317;BME280;41178;48.956;8.130;2023-02-19T20:25:56;100768.25;;;10.80;50.22
55317;BME280;41178;48.956;8.130;2023-02-19T20:30:58;100766.69;;;11.29;49.82
55317;BME280;41178;48.956;8.130;2023-02-19T20:36:00;100750.81;;;10.42;50.96
55317;BME280;41178;48.956;8.130;2023-02-19T20:41:02;100727.69;;;11.84;48.64
55317;BME280;41178;48.956;8.130;2023-02-19T20:46:04;100746.13;;;10.44;50.53
55317;BME280;41178;48.956;8.130;2023-02-19T20:51:07;100730.88;;;11.46;48.49
55317;BME280;41178;48.956;8.130;2023-02-19T20:56:09;100765.78;;;10.95;49.49
55317;BME280;41178;48.956;8.130;2023-02-19T21:01:12;100786.78;;;13.19;46.50
55317;BME280;41178;48.956;8.130;2023-02-19T21:06:14;100786.53;;;11.93;48.45
55317;BME280;41178;48.956;8.130;2023-02-19T21:11:16;100762.97;;;11.13;49.36
55317;BME280;41178;48.956;8.130;2023-02-19T21:16:18;100764.88;;;11.54;48.65
55317;BME280;41178;48.956;8.130;2023-02-19T21:21:21;100791.41;;;10.98;49.77
55317;BME280;41178;48.956;8.130;2023-02-19T21:26:36;100751.06;;;10.57;49.70
55317;BME280;41178;48.956;8.130;2023-02-19T21:31:44;100760.50;;;11.36;48.48
55317;BME280;41178;48.956;8.130;2023-02-19T21:36:46;100722.78;;;12.12;46.96
55317;BME280;41178;48.956;8.130;2023-02-19T21:41:50;100719.81;;;11.82;47.35
55317;BME280;41178;48.956;8.130;2023-02-19T21:46:52;100755.97;;;12.67;47.14
55317;BME280;41178;48.956;8.130;2023-02-19T21:51:53;100742.34;;;12.29;46.90
55317;BME280;41178;48.956;8.130;2023-02-19T21:56:55;100766.63;;;12.44;46.76
55317;BME280;41178;48.956;8.130;2023-02-19T22:01:57;100754.47;;;12.08;47.32
55317;BME280;41178;48.956;8.130;2023-02-19T22:06:59;100749.47;;;11.80;47.56
55317;BME280;41178;48.956;8.130;2023-02-19T22:12:00;100770.97;;;11.05;48.68
55317;BME280;41178;48.956;8.130;2023-02-19T22:17:02;100770.78;;;10.98;48.99
55317;BME280;41178;48.956;8.130;2023-02-19T22:22:04;100765.72;;;11.71;48.24
55317;BME280;41178;48.956;8.130;2023-02-19T22:27:06;100791.06;;;11.76;48.35
55317;BME280;41178;48.956;8.130;2023-02-19T22:32:07;100766.91;;;11.76;47.73
55317;BME280;41178;48.956;8.130;2023-02-19T22:37:09;100763.56;;;10.48;48.90
55317;BME280;41178;48.956;8.130;2023-02-19T22:42:11;100769.41;;;11.53;47.82
55317;BME280;41178;48.956;8.130;2023-02-19T22:47:13;100806.47;;;11.83;47.85
55317;BME280;41178;48.956;8.130;2023-02-19T22:52:14;100782.34;;;10.91;48.38
55317;BME280;41178;48.956;8.130;2023-02-19T22:57:16;100790.72;;;10.61;49.32
55317;BME280;41178;48.956;8.130;2023-02-19T23:02:18;100778.53;;;10.06;49.87
55317;BME280;41178;48.956;8.130;2023-02-19T23:07:20;100779.31;;;10.85;48.21
55317;BME280;41178;48.956;8.130;2023-02-19T23:12:21;100756.31;;;10.06;50.50
55317;BME280;41178;48.956;8.130;2023-02-19T23:17:23;100805.31;;;10.67;49.58
55317;BME280;41178;48.956;8.130;2023-02-19T23:22:25;100810.41;;;10.78;49.05
55317;BME280;41178;48.956;8.130;2023-02-19T23:27:26;100806.19;;;10.41;49.93
55317;BME280;41178;48.956;8.130;2023-02-19T23:32:29;100808.25;;;10.82;49.14
55317;BME280;41178;48.956;8.130;2023-02-19T23:37:30;100773.00;;;9.46;50.82
55317;BME280;41178;48.956;8.130;2023-02-19T23:42:32;100768.03;;;9.15;51.67
55317;BME280;41178;48.956;8.130;2023-02-19T23:47:34;100810.66;;;9.88;50.34
55317;BME280;41178;48.956;8.130;2023-02-19T23:52:36;100812.34;;;10.15;49.75
55317;BME280;41178;48.956;8.130;2023-02-19T23:57:37;100808.28;;;9.85;50.56
